createdAt,value
2023-10-30T00:01:37.238Z,89.66
2023-10-30T00:04:25.330Z,90.89
2023-10-30T00:07:14.668Z,91.30
2023-10-30T00:10:02.533Z,92.18
2023-10-30T00:12:50.527Z,91.58
2023-10-30T00:15:38.428Z,91.33
2023-10-30T00:18:26.561Z,91.27
2023-10-30T00:21:14.517Z,92.12
2023-10-30T00:24:04.120Z,92.45
2023-10-30T00:26:52.052Z,92.84
2023-10-30T00:29:42.012Z,93.56
2023-10-30T00:32:29.927Z,93.12
2023-10-30T00:35:17.827Z,93.52
2023-10-30T00:38:06.117Z,92.40
2023-10-30T00:40:55.479Z,92.55
2023-10-30T00:43:43.475Z,93.50
2023-10-30T00:46:31.554Z,92.70
2023-10-30T00:49:19.754Z,92.93
2023-10-30T00:52:08.361Z,93.83
2023-10-30T00:54:56.134Z,94.25
2023-10-30T00:57:45.512Z,94.34
2023-10-30T01:00:33.286Z,94.67
2023-10-30T01:03:24.900Z,94.54
2023-10-30T01:06:12.949Z,94.14
2023-10-30T01:09:01.045Z,94.33
2023-10-30T01:11:48.990Z,94.68
2023-10-30T01:14:38.269Z,94.88
2023-10-30T01:17:26.416Z,94.35
2023-10-30T01:20:15.047Z,94.30
2023-10-30T01:23:02.925Z,93.50
2023-10-30T01:25:51.149Z,93.18
2023-10-30T01:28:38.915Z,93.93
2023-10-30T01:31:29.122Z,93.52
2023-10-30T01:34:17.017Z,93.60
2023-10-30T01:37:05.553Z,94.29
2023-10-30T01:39:53.284Z,94.04
2023-10-30T01:42:41.297Z,94.80
2023-10-30T01:45:29.170Z,93.99
2023-10-30T01:48:18.558Z,93.08
2023-10-30T01:51:08.867Z,93.44
2023-10-30T01:53:57.089Z,93.65
2023-10-30T01:56:45.253Z,94.36
2023-10-30T01:59:34.039Z,94.38
2023-10-30T02:02:23.250Z,95.03
2023-10-30T02:05:14.738Z,94.82
2023-10-30T02:08:03.335Z,95.48
2023-10-30T02:10:51.350Z,95.02
2023-10-30T02:13:39.106Z,95.45
2023-10-30T02:16:27.201Z,95.93
2023-10-30T02:19:23.903Z,94.75
2023-10-30T02:22:13.150Z,95.18
2023-10-30T02:25:01.355Z,95.46
2023-10-30T02:27:50.745Z,95.38
2023-10-30T02:30:38.774Z,94.96
2023-10-30T02:33:27.269Z,94.85
2023-10-30T02:36:15.117Z,95.40
2023-10-30T02:39:04.196Z,95.43
2023-10-30T02:41:51.916Z,95.52
2023-10-30T02:44:41.447Z,96.30
2023-10-30T02:47:30.031Z,96.23
2023-10-30T02:50:17.887Z,97.02
2023-10-30T02:53:07.366Z,97.85
2023-10-30T02:55:55.513Z,97.87
2023-10-30T02:58:43.646Z,97.17
2023-10-30T03:01:32.877Z,98.22
2023-10-30T03:04:21.163Z,97.70
2023-10-30T03:07:08.960Z,97.60
2023-10-30T03:09:56.919Z,97.20
2023-10-30T03:12:44.950Z,96.96
2023-10-30T03:15:32.964Z,96.83
2023-10-30T03:18:22.308Z,97.06
2023-10-30T03:21:10.250Z,97.73
2023-10-30T03:23:58.300Z,96.74
2023-10-30T03:26:46.048Z,97.16
2023-10-30T03:29:37.881Z,97.41
2023-10-30T03:32:25.720Z,97.88
2023-10-30T03:35:15.041Z,97.35
2023-10-30T03:38:02.923Z,97.58
2023-10-30T03:40:50.781Z,97.71
2023-10-30T03:43:38.804Z,98.07
2023-10-30T03:46:26.718Z,98.09
2023-10-30T03:49:14.862Z,97.41
2023-10-30T03:52:04.119Z,97.64
2023-10-30T03:54:51.908Z,96.94
2023-10-30T03:57:41.747Z,97.57
2023-10-30T04:00:29.754Z,97.55
2023-10-30T04:03:18.025Z,97.62
2023-10-30T04:06:06.583Z,98.06
2023-10-30T04:08:55.943Z,96.91
2023-10-30T04:11:47.634Z,97.24
2023-10-30T04:14:35.607Z,97.71
2023-10-30T04:17:24.344Z,97.91
2023-10-30T04:20:13.432Z,98.61
2023-10-30T04:23:01.526Z,97.68
2023-10-30T04:25:50.865Z,98.06
2023-10-30T04:28:38.744Z,97.81
2023-10-30T04:31:26.701Z,98.65
2023-10-30T04:34:14.735Z,100.00
2023-10-30T04:37:02.896Z,98.73
2023-10-30T04:39:51.168Z,99.59
2023-10-30T04:42:41.367Z,99.74
2023-10-30T04:45:29.522Z,98.60
2023-10-30T04:48:17.577Z,98.40
2023-10-30T04:51:06.080Z,98.45
2023-10-30T04:53:55.376Z,97.69
2023-10-30T04:56:43.712Z,98.50
2023-10-30T04:59:34.053Z,97.59
2023-10-30T05:02:22.174Z,98.22
2023-10-30T05:05:10.585Z,97.97
2023-10-30T05:07:58.372Z,97.73
2023-10-30T05:10:47.930Z,97.08
2023-10-30T05:13:36.677Z,97.44
2023-10-30T05:16:26.293Z,97.29
2023-10-30T05:19:14.185Z,97.71
2023-10-30T05:22:02.296Z,97.38
2023-10-30T05:24:50.176Z,97.13
2023-10-30T05:27:38.339Z,96.92
2023-10-30T05:30:26.543Z,97.34
2023-10-30T05:33:15.864Z,97.30
2023-10-30T05:36:04.715Z,96.15
2023-10-30T05:38:52.529Z,95.77
2023-10-30T05:41:40.383Z,95.73
2023-10-30T05:44:31.532Z,94.78
2023-10-30T05:47:19.448Z,94.54
2023-10-30T05:50:11.273Z,94.23
2023-10-30T05:52:59.049Z,94.12
2023-10-30T05:55:47.564Z,93.44
2023-10-30T05:58:35.590Z,93.53
2023-10-30T06:01:23.550Z,93.40
2023-10-30T06:04:11.611Z,92.70
2023-10-30T06:07:00.934Z,91.92
2023-10-30T06:09:49.222Z,92.74
2023-10-30T06:12:37.342Z,92.51
2023-10-30T06:15:25.630Z,91.63
2023-10-30T06:18:13.763Z,91.30
2023-10-30T06:21:03.075Z,91.75
2023-10-30T06:23:52.386Z,90.73
2023-10-30T06:26:42.271Z,90.91
2023-10-30T06:29:30.476Z,90.45
2023-10-30T06:32:18.781Z,90.22
2023-10-30T06:35:09.241Z,90.24
2023-10-30T06:37:57.387Z,89.13
2023-10-30T06:40:47.428Z,89.12
2023-10-30T06:43:36.144Z,88.98
2023-10-30T06:46:24.453Z,88.50
2023-10-30T06:49:12.488Z,88.76
2023-10-30T06:52:01.789Z,89.49
2023-10-30T06:54:49.854Z,87.79
2023-10-30T06:57:39.387Z,87.58
2023-10-30T07:00:28.175Z,87.14
2023-10-30T07:03:16.467Z,86.06
2023-10-30T07:06:04.798Z,85.70
2023-10-30T07:08:52.555Z,85.04
2023-10-30T07:11:41.254Z,84.03
2023-10-30T07:14:30.875Z,86.34
2023-10-30T07:17:19.003Z,83.53
2023-10-30T07:20:07.890Z,85.16
2023-10-30T07:22:55.971Z,82.56
2023-10-30T07:25:43.902Z,83.32
2023-10-30T07:28:31.890Z,80.56
2023-10-30T07:31:22.303Z,79.61
2023-10-30T07:34:10.273Z,78.61
2023-10-30T07:36:58.855Z,77.51
2023-10-30T07:39:46.681Z,76.41
2023-10-30T07:42:34.944Z,76.60
2023-10-30T07:45:22.889Z,76.21
2023-10-30T07:48:12.312Z,75.64
2023-10-30T07:51:03.836Z,75.36
2023-10-30T07:53:52.088Z,74.40
2023-10-30T07:56:40.334Z,73.95
2023-10-30T07:59:28.074Z,73.23
2023-10-30T08:02:16.195Z,74.04
2023-10-30T08:05:06.231Z,72.95
2023-10-30T08:07:54.250Z,72.53
2023-10-30T08:10:42.076Z,73.00
2023-10-30T08:13:30.077Z,72.57
2023-10-30T08:16:18.343Z,72.33
2023-10-30T08:19:06.610Z,72.78
2023-10-30T08:21:56.114Z,71.90
2023-10-30T08:24:44.024Z,71.87
2023-10-30T08:27:32.145Z,72.07
2023-10-30T08:30:20.411Z,71.82
2023-10-30T08:33:08.289Z,72.06
2023-10-30T08:35:56.582Z,71.34
2023-10-30T08:38:45.725Z,69.48
2023-10-30T08:41:34.974Z,69.82
2023-10-30T08:44:26.025Z,70.49
2023-10-30T08:47:18.153Z,70.96
2023-10-30T08:50:09.467Z,69.15
2023-10-30T08:52:57.533Z,70.48
2023-10-30T08:55:46.872Z,70.20
2023-10-30T08:58:34.828Z,70.00
2023-10-30T09:01:22.721Z,69.20
2023-10-30T09:04:11.531Z,69.61
2023-10-30T09:06:59.496Z,69.19
2023-10-30T09:09:47.930Z,70.50
2023-10-30T09:12:37.650Z,70.30
2023-10-30T09:15:25.693Z,70.25
2023-10-30T09:18:13.760Z,69.92
2023-10-30T09:21:01.782Z,69.82
2023-10-30T09:23:49.698Z,69.72
2023-10-30T09:26:37.579Z,69.39
2023-10-30T09:29:27.237Z,69.31
2023-10-30T09:32:15.609Z,69.16
2023-10-30T09:35:04.585Z,68.86
2023-10-30T09:37:52.578Z,69.27
2023-10-30T09:40:40.636Z,69.47
2023-10-30T09:43:30.420Z,69.91
2023-10-30T09:46:24.681Z,69.91
2023-10-30T09:49:15.271Z,69.50
2023-10-30T09:52:05.648Z,69.10
2023-10-30T09:54:55.645Z,69.52
2023-10-30T09:57:44.985Z,70.51
2023-10-30T10:00:33.586Z,69.90
2023-10-30T10:03:23.116Z,69.69
2023-10-30T10:06:11.397Z,69.11
2023-10-30T10:09:00.313Z,69.14
2023-10-30T10:11:48.594Z,69.52
2023-10-30T10:14:36.620Z,70.03
2023-10-30T10:17:24.841Z,69.39
2023-10-30T10:20:14.749Z,69.28
2023-10-30T10:23:02.630Z,69.64
2023-10-30T10:26:00.906Z,69.55
2023-10-30T10:28:49.322Z,69.15
2023-10-30T10:31:42.177Z,70.63
2023-10-30T10:34:33.143Z,71.50
2023-10-30T10:37:22.747Z,68.43
2023-10-30T10:40:19.037Z,66.76
2023-10-30T10:43:09.394Z,67.48
2023-10-30T10:45:58.407Z,67.39
2023-10-30T10:48:46.537Z,67.68
2023-10-30T10:51:38.676Z,66.49
2023-10-30T10:54:33.335Z,66.52
2023-10-30T10:57:23.225Z,66.66
2023-10-30T11:00:15.075Z,65.90
2023-10-30T11:03:06.897Z,66.41
2023-10-30T11:05:55.726Z,66.67
2023-10-30T11:08:50.468Z,66.38
2023-10-30T11:11:48.499Z,65.54
2023-10-30T11:14:45.222Z,65.84
2023-10-30T11:17:33.546Z,64.34
2023-10-30T11:20:24.414Z,64.33
2023-10-30T11:23:13.817Z,64.86
2023-10-30T11:26:01.930Z,64.64
2023-10-30T11:28:51.216Z,65.30
2023-10-30T11:32:05.491Z,63.75
2023-10-30T11:34:53.369Z,64.50
2023-10-30T11:37:42.520Z,64.36
2023-10-30T11:40:31.162Z,64.50
2023-10-30T11:43:21.631Z,64.41
2023-10-30T11:46:11.050Z,66.08
2023-10-30T11:49:01.077Z,64.68
2023-10-30T11:51:53.309Z,63.92
2023-10-30T11:54:42.920Z,64.22
2023-10-30T11:57:30.910Z,64.66
2023-10-30T12:00:19.558Z,64.84
2023-10-30T12:03:10.831Z,64.02
2023-10-30T12:05:58.926Z,64.21
2023-10-30T12:08:46.803Z,63.69
2023-10-30T12:11:34.879Z,64.16
2023-10-30T12:14:23.178Z,63.65
2023-10-30T12:17:11.421Z,63.00
2023-10-30T12:20:01.154Z,63.76
2023-10-30T12:22:49.049Z,62.47
2023-10-30T12:25:36.986Z,62.84
2023-10-30T12:28:24.765Z,64.44
2023-10-30T12:31:20.055Z,63.20
2023-10-30T12:34:09.524Z,63.10
2023-10-30T12:36:58.800Z,63.34
2023-10-30T12:40:02.606Z,61.79
2023-10-30T12:42:51.198Z,63.26
2023-10-30T12:45:40.447Z,62.70
2023-10-30T12:48:28.431Z,62.21
2023-10-30T12:51:16.392Z,61.83
2023-10-30T12:54:06.372Z,61.79
2023-10-30T12:56:54.442Z,60.92
2023-10-30T12:59:42.229Z,61.66
2023-10-30T13:02:30.612Z,61.23
2023-10-30T13:05:18.926Z,61.02
2023-10-30T13:08:07.039Z,61.00
2023-10-30T13:10:56.421Z,60.70
2023-10-30T13:13:44.342Z,60.66
2023-10-30T13:16:32.472Z,60.79
2023-10-30T13:19:20.373Z,60.64
2023-10-30T13:22:08.344Z,60.25
2023-10-30T13:24:56.338Z,60.85
2023-10-30T13:27:45.700Z,60.79
2023-10-30T13:30:33.728Z,60.96
2023-10-30T13:33:21.708Z,60.40
2023-10-30T13:36:09.887Z,60.75
2023-10-30T13:38:57.665Z,60.33
2023-10-30T13:41:47.430Z,60.40
2023-10-30T13:44:36.920Z,60.63
2023-10-30T13:47:24.717Z,60.42
2023-10-30T13:50:12.784Z,60.85
2023-10-30T13:53:00.614Z,60.85
2023-10-30T13:55:48.778Z,60.87
2023-10-30T13:58:38.479Z,60.71
2023-10-30T14:01:27.988Z,61.39
2023-10-30T14:07:06.121Z,61.27
2023-10-30T14:09:57.051Z,60.84
2023-10-30T14:12:44.911Z,61.04
2023-10-30T14:15:33.262Z,61.32
2023-10-30T14:18:22.713Z,60.76
2023-10-30T14:21:10.588Z,61.07
2023-10-30T14:23:58.490Z,60.12
2023-10-30T14:26:46.193Z,60.86
2023-10-30T14:29:34.284Z,60.99
2023-10-30T14:32:22.227Z,60.46
2023-10-30T14:35:11.690Z,60.55
2023-10-30T14:37:59.465Z,59.88
2023-10-30T14:40:47.245Z,59.82
2023-10-30T14:43:35.058Z,61.00
2023-10-30T14:46:23.808Z,61.83
2023-10-30T14:49:12.505Z,62.75
2023-10-30T14:52:03.570Z,63.91
2023-10-30T14:54:51.678Z,65.17
2023-10-30T14:57:39.806Z,66.44
2023-10-30T15:00:27.642Z,66.34
2023-10-30T15:03:15.918Z,66.89
2023-10-30T15:06:03.780Z,66.73
2023-10-30T15:08:53.224Z,67.24
2023-10-30T15:11:41.076Z,67.72
2023-10-30T15:14:29.803Z,68.53
2023-10-30T15:17:18.000Z,68.88
2023-10-30T15:20:06.856Z,69.18
2023-10-30T15:22:54.996Z,69.57
2023-10-30T15:25:44.324Z,69.95
2023-10-30T15:28:32.559Z,69.13
2023-10-30T15:31:20.537Z,70.49
2023-10-30T15:34:08.523Z,71.14
2023-10-30T15:36:56.720Z,71.52
2023-10-30T15:39:44.957Z,71.72
2023-10-30T15:42:34.587Z,72.39
2023-10-30T15:45:22.523Z,72.68
2023-10-30T15:48:12.149Z,72.85
2023-10-30T15:51:00.132Z,72.78
2023-10-30T15:59:31.546Z,73.22
2023-10-30T16:02:19.761Z,74.19
2023-10-30T16:05:08.315Z,74.60
2023-10-30T16:07:57.489Z,74.56
2023-10-30T16:10:45.678Z,75.77
2023-10-30T16:16:26.588Z,75.85
2023-10-30T16:19:16.212Z,77.05
2023-10-30T16:22:04.584Z,77.89
2023-10-30T16:24:52.644Z,78.42
2023-10-30T16:27:40.438Z,78.13
2023-10-30T16:30:28.453Z,78.82
2023-10-30T16:33:19.030Z,78.52
2023-10-30T16:36:07.884Z,78.43
2023-10-30T16:38:55.800Z,78.14
2023-10-30T16:41:44.265Z,79.20
2023-10-30T16:44:35.473Z,78.89
2023-10-30T16:47:23.689Z,80.12
2023-10-30T16:50:14.756Z,79.85
2023-10-30T16:53:04.020Z,80.92
2023-10-30T16:55:52.033Z,80.71
2023-10-30T16:58:40.176Z,81.45
2023-10-30T17:01:30.269Z,80.87
2023-10-30T17:04:18.826Z,80.85
2023-10-30T17:07:09.190Z,81.59
2023-10-30T17:09:57.086Z,81.45
2023-10-30T17:12:44.898Z,81.31
2023-10-30T17:15:32.987Z,81.13
2023-10-30T17:18:27.437Z,81.97
2023-10-30T17:21:15.356Z,81.50
2023-10-30T17:24:05.017Z,82.31
2023-10-30T17:26:52.871Z,83.21
2023-10-30T17:29:40.843Z,81.59
2023-10-30T17:32:28.838Z,82.39
2023-10-30T17:35:16.679Z,82.64
2023-10-30T17:38:04.825Z,81.79
2023-10-30T17:40:54.078Z,83.90
2023-10-30T17:43:41.848Z,82.07
2023-10-30T17:46:30.275Z,82.67
2023-10-30T17:49:18.193Z,82.46
2023-10-30T17:52:06.230Z,81.35
2023-10-30T17:54:54.216Z,81.23
2023-10-30T17:57:43.529Z,82.64
2023-10-30T18:00:32.071Z,81.56
2023-10-30T18:03:20.315Z,81.80
2023-10-30T18:06:08.941Z,83.38
2023-10-30T18:08:56.860Z,83.02
2023-10-30T18:11:44.948Z,82.42
2023-10-30T18:14:36.147Z,81.87
2023-10-30T18:17:27.830Z,84.63
2023-10-30T18:20:16.128Z,83.16
2023-10-30T18:23:04.480Z,83.68
2023-10-30T18:25:55.485Z,84.63
2023-10-30T18:28:44.741Z,86.08
2023-10-30T18:31:34.529Z,82.81
2023-10-30T18:34:22.583Z,85.58
2023-10-30T18:37:10.784Z,84.65
2023-10-30T18:39:58.855Z,83.09
2023-10-30T18:42:46.725Z,83.44
2023-10-30T18:45:34.929Z,83.15
2023-10-30T18:48:27.637Z,82.97
2023-10-30T18:51:18.260Z,80.95
2023-10-30T18:54:06.681Z,79.37
2023-10-30T18:56:56.875Z,81.36
2023-10-30T18:59:45.328Z,78.09
2023-10-30T19:02:33.645Z,79.74
2023-10-30T19:05:23.378Z,78.23
2023-10-30T19:08:12.098Z,78.22
2023-10-30T19:11:00.698Z,77.95
2023-10-30T19:13:49.415Z,78.70
2023-10-30T19:16:37.893Z,79.07
2023-10-30T19:19:26.594Z,77.37
2023-10-30T19:22:18.522Z,78.45
2023-10-30T19:25:07.640Z,79.40
2023-10-30T19:27:55.965Z,77.94
2023-10-30T19:30:44.432Z,78.89
2023-10-30T19:33:33.086Z,79.30
2023-10-30T19:36:21.704Z,79.45
2023-10-30T19:39:12.640Z,79.65
2023-10-30T19:42:01.137Z,79.51
2023-10-30T19:44:49.709Z,79.95
2023-10-30T19:47:38.389Z,79.82
2023-10-30T19:50:26.913Z,80.11
2023-10-30T19:53:15.865Z,79.95
2023-10-30T19:56:06.134Z,79.94
2023-10-30T19:58:57.600Z,79.63
2023-10-30T20:01:46.606Z,79.15
2023-10-30T20:04:36.347Z,81.43
2023-10-30T20:07:25.067Z,80.47
2023-10-30T20:10:28.348Z,81.42
2023-10-30T20:13:25.298Z,81.93
2023-10-30T20:16:13.861Z,81.87
2023-10-30T20:19:02.302Z,83.33
2023-10-30T20:21:50.656Z,82.29
2023-10-30T20:24:40.872Z,81.47
2023-10-30T20:27:29.887Z,83.46
2023-10-30T20:30:22.980Z,85.37
2023-10-30T20:33:11.140Z,82.66
2023-10-30T20:36:00.597Z,82.37
2023-10-30T20:38:48.641Z,81.33
2023-10-30T20:41:36.806Z,81.05
2023-10-30T20:44:24.840Z,80.32
2023-10-30T20:47:17.743Z,79.93
2023-10-30T20:50:07.000Z,80.41
2023-10-30T20:52:55.385Z,80.97
2023-10-30T20:55:43.857Z,81.33
2023-10-30T20:58:32.523Z,81.09
2023-10-30T21:01:21.352Z,81.30
2023-10-30T21:04:10.939Z,82.55
2023-10-30T21:06:59.006Z,82.49
2023-10-30T21:09:46.783Z,84.14
2023-10-30T21:12:35.766Z,79.96
2023-10-30T21:15:24.974Z,81.23
2023-10-30T21:18:13.484Z,81.42
2023-10-30T21:21:03.811Z,81.35
2023-10-30T21:23:51.758Z,81.53
2023-10-30T21:26:39.641Z,80.86
2023-10-30T21:29:27.832Z,82.25
2023-10-30T21:32:15.711Z,82.53
2023-10-30T21:35:04.132Z,81.50
2023-10-30T21:37:53.458Z,82.19
2023-10-30T21:40:41.357Z,82.08
2023-10-30T21:43:29.360Z,81.95
2023-10-30T21:46:18.610Z,81.88
2023-10-30T21:49:06.767Z,83.00
2023-10-30T21:51:54.542Z,82.73
2023-10-30T21:54:45.308Z,83.19
2023-10-30T21:57:33.229Z,83.82
2023-10-30T22:00:21.514Z,83.46
2023-10-30T22:03:09.627Z,83.46
2023-10-30T22:05:57.628Z,83.42
2023-10-30T22:08:45.730Z,84.04
2023-10-30T22:11:35.713Z,84.27
2023-10-30T22:14:25.007Z,84.09
2023-10-30T22:17:13.306Z,83.53
2023-10-30T22:20:01.372Z,83.72
2023-10-30T22:22:49.311Z,83.81
2023-10-30T22:25:37.323Z,83.53
2023-10-30T22:28:26.803Z,84.56
2023-10-30T22:31:14.753Z,84.33
2023-10-30T22:34:02.599Z,83.71
2023-10-30T22:36:50.497Z,85.35
2023-10-30T22:39:38.420Z,85.90
2023-10-30T22:42:26.196Z,85.56
2023-10-30T22:45:15.520Z,86.18
2023-10-30T22:48:03.624Z,85.78
2023-10-30T22:50:51.704Z,85.71
2023-10-30T22:53:39.731Z,85.40
2023-10-30T22:56:27.592Z,84.80
2023-10-30T22:59:15.415Z,84.98
2023-10-30T23:02:04.720Z,86.11
2023-10-30T23:04:52.687Z,86.06
2023-10-30T23:07:40.933Z,85.85
2023-10-30T23:10:28.965Z,86.48
2023-10-30T23:13:16.927Z,88.74
2023-10-30T23:16:05.318Z,85.25
2023-10-30T23:18:54.728Z,86.47
2023-10-30T23:21:42.629Z,86.00
2023-10-30T23:24:30.517Z,86.41
2023-10-30T23:27:18.560Z,87.60
2023-10-30T23:30:07.480Z,89.19
2023-10-30T23:32:55.609Z,87.63
2023-10-30T23:35:44.910Z,86.71
2023-10-30T23:38:33.695Z,86.13
2023-10-30T23:41:21.487Z,86.01
2023-10-30T23:44:09.424Z,86.60
2023-10-30T23:46:57.601Z,86.40
2023-10-30T23:49:46.089Z,87.68
2023-10-30T23:52:35.524Z,88.34
2023-10-30T23:55:23.397Z,88.25
2023-10-30T23:58:11.259Z,88.78
